Riverside, Arkansas
Current Conditions -  °F | °C
As of 3:56 PM on Sunday 25 Jan 2015 (Local Time) from KM19 Reporting Station
Broken Clouds Broken Clouds  
Wind Chill: 40°   Ceiling: 3600
Heat Index: 48°   Visibility: 10mi
Dew Point: 39°   Wind: 24mph
Humidity: 71%   Direction: 290°WNW
Pressure: 29.78"   Gusts: 28mph
Location:  35.2139°N, 91.1509°W
Report Text: KM19 252156Z AUTO 29021G24KT 10SM BKN036 BKN047 BKN065 09/04 A2978 RMK AO2 T00880038 BKN V SCT RAB23E45 P0000 PK WND 30033/2121 SLP084
Loading
Personal Weather Stations






























Interactive Weather Map New forecast layout! Learn more

10-Day Weather Forecast

Advertisements
Track Severe Weather on mobile